地図

経路データ

SID SEASON NUMBER BASIN SUBBASIN NAME ISO_TIME NATURE LAT LON WMO_WIND WMO_PRES WMO_AGENCY TRACK_TYPE DIST2LAND LANDFALL IFLAG USA_AGENCY USA_ATCF_ID USA_LAT USA_LON USA_RECORD USA_STATUS USA_WIND USA_PRES USA_SSHS USA_R34_NE USA_R34_SE USA_R34_SW USA_R34_NW USA_R50_NE USA_R50_SE USA_R50_SW USA_R50_NW USA_R64_NE USA_R64_SE USA_R64_SW USA_R64_NW USA_POCI USA_ROCI USA_RMW USA_EYE TOKYO_LAT TOKYO_LON TOKYO_GRADE TOKYO_WIND TOKYO_PRES TOKYO_R50_DIR TOKYO_R50_LONG TOKYO_R50_SHORT TOKYO_R30_DIR TOKYO_R30_LONG TOKYO_R30_SHORT TOKYO_LAND CMA_LAT CMA_LON CMA_CAT CMA_WIND CMA_PRES HKO_LAT HKO_LON HKO_CAT HKO_WIND HKO_PRES NEWDELHI_LAT NEWDELHI_LON NEWDELHI_GRADE NEWDELHI_WIND NEWDELHI_PRES NEWDELHI_CI NEWDELHI_DP NEWDELHI_POCI REUNION_LAT REUNION_LON REUNION_TYPE REUNION_WIND REUNION_PRES REUNION_TNUM REUNION_CI REUNION_RMW REUNION_R34_NE REUNION_R34_SE REUNION_R34_SW REUNION_R34_NW REUNION_R50_NE REUNION_R50_SE REUNION_R50_SW REUNION_R50_NW REUNION_R64_NE REUNION_R64_SE REUNION_R64_SW REUNION_R64_NW BOM_LAT BOM_LON BOM_TYPE BOM_WIND BOM_PRES BOM_TNUM BOM_CI BOM_RMW BOM_R34_NE BOM_R34_SE BOM_R34_SW BOM_R34_NW BOM_R50_NE BOM_R50_SE BOM_R50_SW BOM_R50_NW BOM_R64_NE BOM_R64_SE BOM_R64_SW BOM_R64_NW BOM_ROCI BOM_POCI BOM_EYE BOM_POS_METHOD BOM_PRES_METHOD NADI_LAT NADI_LON NADI_CAT NADI_WIND NADI_PRES WELLINGTON_LAT WELLINGTON_LON WELLINGTON_WIND WELLINGTON_PRES DS824_LAT DS824_LON DS824_STAGE DS824_WIND DS824_PRES TD9636_LAT TD9636_LON TD9636_STAGE TD9636_WIND TD9636_PRES TD9635_LAT TD9635_LON TD9635_WIND TD9635_PRES TD9635_ROCI NEUMANN_LAT NEUMANN_LON NEUMANN_CLASS NEUMANN_WIND NEUMANN_PRES MLC_LAT MLC_LON MLC_CLASS MLC_WIND MLC_PRES USA_GUST BOM_GUST BOM_GUST_PER REUNION_GUST REUNION_GUST_PER USA_SEAHGT USA_SEARAD_NE USA_SEARAD_SE USA_SEARAD_SW USA_SEARAD_NW STORM_SPEED STORM_DIR
1961333S11157 1962 122 SP EA NOT_NAMED 1961-11-28 23:00:00 NR -11.3000 156.500 1000 bom main 334 313 ______O_______ -1 -11.3000 156.500 1000 101 114
1961333S11157 1962 122 SP EA NOT_NAMED 1961-11-29 00:00:00 TS -11.9803 158.060 main 308 299 O_____P__OO_O_ jtwc_sh SH011962 -12.8000 160.000 -1 -11.3812 156.561 -11.4000 156.600 TC 30 1000 -12.8000 160.000 4 -11.3000 156.700 TC 30 1000 31 119
1961333S11157 1962 122 SP EA NOT_NAMED 1961-11-29 03:00:00 TS -12.3025 158.329 main 324 319 P_____P__PP_P_ SH011962 -13.1125 160.110 -1 -11.6250 156.744 -11.6569 156.787 TC -13.0969 160.118 4 -11.5500 156.897 TC 30 999 8 144
1961333S11157 1962 122 SP EA NOT_NAMED 1961-11-29 06:00:00 TS -12.5864 158.514 main 344 339 O_____P__PP_O_ jtwc_sh SH011962 -13.4000 160.200 -1 -11.8695 156.928 -11.9131 156.974 TC -13.3749 160.210 4 -11.8000 157.100 TC 30 999 7 146
1961333S11157 1962 122 SP EA NOT_NAMED 1961-11-29 09:00:00 TS -12.8706 158.720 main 367 363 P_____P__PP_P_ SH011962 -13.6375 160.245 -1 -12.1154 157.113 -12.1679 157.162 TC -13.6155 160.246 4 -12.0500 157.308 TC 32 998 6 151
1961333S11157 1962 122 SP EA NOT_NAMED 1961-11-29 12:00:00 TS -13.0807 158.791 main 385 385 O_____P__PO_O_ jtwc_sh SH011962 -13.8000 160.200 -1 -12.3634 157.299 -12.4208 157.349 TC -13.8000 160.200 4 -12.3000 157.500 TC 35 998 4 169
1961333S11157 1962 122 SP EA NOT_NAMED 1961-11-29 15:00:00 TS -13.2493 158.794 main 396 396 P_____P__PP_P_ SH011962 -13.8726 160.015 -1 -12.6139 157.487 -12.6710 157.537 TC -13.9158 160.059 4 -12.5500 157.650 TC 35 997 3 185
1961333S11157 1962 122 SP EA NOT_NAMED 1961-11-29 18:00:00 TS -13.3935 158.779 main 417 417 O_____P__PP_O_ jtwc_sh SH011962 -13.9000 159.800 -1 -12.8678 157.677 -12.9181 157.725 TC -13.9752 159.870 4 -12.8000 157.800 TC 35 997 3 172
1961333S11157 1962 122 SP EA NOT_NAMED 1961-11-29 21:00:00 TS -13.5580 158.833 main 439 436 P_____P__PP_P_ SH011962 -13.9575 159.648 -1 -13.1256 157.870 -13.1613 157.913 TC -13.9970 159.696 4 -13.0500 157.993 TC 35 996 4 156
1961333S11157 1962 122 SP EA NOT_NAMED 1961-11-29 23:00:00 TS -13.6646 158.903 996 bom main 447 440 P_____O__PP_P_ SH011962 -13.9890 159.600 -1 -13.3000 158.000 996 -13.3210 158.038 TC -13.9999 159.620 4 -13.2167 158.131 TC 35 996 4 141
1961333S11157 1962 122 SP EA NOT_NAMED 1961-11-30 00:00:00 TS -13.7215 158.970 main 440 440 O_____P__OO_O_ jtwc_sh SH011962 -14.0000 159.600 -1 -13.3880 158.066 -13.4000 158.100 TC 35 996 -14.0000 159.600 4 -13.3000 158.200 TC 35 996 4 126
1961333S11157 1962 122 SP EA NOT_NAMED 1961-11-30 03:00:00 TS -13.8389 159.150 main 443 436 P_____P__PP_P_ SH011962 -14.0075 159.713 -1 -13.6551 158.264 -13.6340 158.287 TC -13.9819 159.660 4 -13.5425 158.400 TC 37 995 4 121
1961333S11157 1962 122 SP EA NOT_NAMED 1961-11-30 06:00:00 TS -13.9362 159.334 main 440 434 O_____P__PP_O_ jtwc_sh SH011962 -14.0000 159.900 -1 -13.9261 158.467 -13.8649 158.476 TC -13.9550 159.803 4 -13.8000 158.600 TC 40 994 4 120
1961333S11157 1962 122 SP EA NOT_NAMED 1961-11-30 09:00:00 TS -14.0412 159.509 main 436 434 P_____P__PP_P_ SH011962 -13.9775 160.043 -1 -14.2004 158.673 -14.0943 158.666 TC -13.9507 159.994 4 -14.1000 158.793 TC 42 993 4 124
1961333S11157 1962 122 SP EA NOT_NAMED 1961-11-30 12:00:00 TS -14.1754 159.697 main 443 438 O_____P__PO_O_ jtwc_sh SH011962 -14.0000 160.200 -1 -14.4771 158.884 -14.3243 158.859 TC -14.0000 160.200 4 -14.4000 159.000 TC 45 992 5 129
1961333S11157 1962 122 SP EA NOT_NAMED 1961-11-30 15:00:00 TS -14.3514 159.907 main 452 447 P_____P__PP_P_ SH011962 -14.1125 160.400 -1 -14.7554 159.100 -14.5566 159.056 TC -14.1263 160.384 4 -14.6500 159.250 TC 45 991 6 134
1961333S11157 1962 122 SP MM NOT_NAMED 1961-11-30 18:00:00 TS -14.5690 160.118 main 463 459 O_____P__PP_O_ jtwc_sh SH011962 -14.3000 160.600 -1 -15.0347 159.320 -14.7931 159.257 TC -14.3101 160.572 4 -14.9000 159.500 TC 45 990 6 141
1961333S11157 1962 122 SP MM NOT_NAMED 1961-11-30 21:00:00 TS -14.8216 160.305 main 476 476 P_____P__PP_P_ SH011962 -14.5275 160.765 -1 -15.3141 159.546 -15.0357 159.465 TC -14.5388 160.750 4 -15.1999 159.700 TC 47 989 6 146
1961333S11157 1962 122 SP MM NOT_NAMED 1961-11-30 23:00:00 TS -15.0049 160.420 988 bom main 494 494 P_____O__PP_P_ SH011962 -14.7057 160.858 -1 -15.5000 159.700 988 -15.2018 159.608 TC -14.7101 160.854 4 -15.4031 159.830 TC 49 988 6 150
1961333S11157 1962 122 SP MM NOT_NAMED 1961-12-01 00:00:00 TS -15.0966 160.474 main 501 501 O_____P__PO_O_ jtwc_sh SH011962 -14.8000 160.900 -1 -15.5828 159.772 -15.2863 159.680 TC -14.8000 160.900 4 -15.5000 159.900 TC 50 988 6 150
1961333S11157 1962 122 SP MM NOT_NAMED 1961-12-01 03:00:00 TS -15.3675 160.633 main 531 528 P_____P__PP_P_ SH011962 -15.0925 161.015 -1 -15.8273 159.992 -15.5467 159.904 TC -15.0752 161.000 4 -15.7500 160.143 TC 52 986 6 152
1961333S11157 1962 122 SP MM NOT_NAMED 1961-12-01 06:00:00 TS -15.6495 160.778 main 548 548 O_____P__PP_O_ jtwc_sh SH011962 -15.4000 161.100 -1 -16.0702 160.216 -15.8188 160.137 TC -15.3774 161.073 4 -16.0000 160.400 TC 55 985 6 156
1961333S11157 1962 122 SP MM NOT_NAMED 1961-12-01 09:00:00 TS -15.9447 160.906 main 579 554 P_____P__PP_P_ SH011962 -15.7075 161.150 -1 -16.3175 160.447 -16.1044 160.380 TC -15.6909 161.134 4 -16.3000 160.650 TC 55 984 6 157
1961333S11157 1962 122 SP MM NOT_NAMED 1961-12-01 12:00:00 TS -16.2350 161.038 main 554 514 O_____P__PO_O_ jtwc_sh SH011962 -16.0000 161.200 -1 -16.5750 160.688 -16.4053 160.636 TC -16.0000 161.200 4 -16.6000 160.900 TC 55 983 6 152
1961333S11157 1962 122 SP MM NOT_NAMED 1961-12-01 15:00:00 TS -16.4734 161.194 main 514 484 P_____P__PP_P_ SH011962 -16.2500 161.293 -1 -16.8484 160.942 -16.7236 160.904 TC -16.1686 161.293 4 -16.8500 161.150 TC 57 981 6 147
1961333S11157 1962 122 SP MM NOT_NAMED 1961-12-01 18:00:00 TS -16.7183 161.361 main 484 450 O_____P__PP_O_ jtwc_sh SH011962 -16.5000 161.400 -1 -17.1437 161.210 -17.0609 161.187 TC -16.3478 161.393 4 -17.1000 161.400 TC 60 980 6 148
1961333S11157 1962 122 SP MM NOT_NAMED 1961-12-01 21:00:00 TS -16.9784 161.526 main 450 426 P_____P__PP_P_ SH011962 -16.7100 161.500 -1 -17.4665 161.497 -17.4191 161.485 TC -16.6281 161.497 4 -17.3774 161.635 TC 62 979 7 152
1961333S11157 1962 122 SP MM NOT_NAMED 1961-12-01 23:00:00 TS -17.2142 161.641 978 bom main 426 402 P_____O__PP_P_ SH011962 -16.9346 161.567 -1 -17.7000 161.700 978 4 -17.6704 161.693 TC -16.9158 161.566 4 -17.5859 161.805 TC 64 978 9 158
1961333S11157 1962 122 SP MM NOT_NAMED 1961-12-02 00:00:00 TS -17.3808 161.703 main 402 345 O_____P__OO_O_ jtwc_sh SH011962 -17.1000 161.600 -1 -17.7993 161.793 978 -17.8000 161.800 TC 60 978 -17.1000 161.600 4 -17.7000 161.900 TC 65 978 12 162
1961333S11157 1962 122 SP MM NOT_NAMED 1961-12-02 03:00:00 TS -17.9746 161.903 main 337 275 P_____P__PP_P_ SH011962 -17.8301 161.700 -1 -18.1144 162.083 978 -18.2041 162.133 TC 60 978 -17.9063 161.680 4 -18.0775 162.235 TC 65 978 14 163
1961333S11157 1962 122 SP MM NOT_NAMED 1961-12-02 06:00:00 TS -18.6872 162.126 main 267 204 O_____P__PP_O_ jtwc_sh SH011962 -18.8000 161.800 -1 -18.4812 162.403 978 -18.6263 162.479 TC 60 978 -18.9002 161.763 4 -18.5000 162.600 TC 65 978 16 165
1961333S11157 1962 122 SP MM NOT_NAMED 1961-12-02 09:00:00 TS -19.4779 162.320 main 198 156 P_____P__PP_P_ SH011962 -19.9000 161.893 -1 -18.9321 162.770 978 -19.0604 162.837 TC 60 978 -19.9690 161.865 4 -18.8972 162.921 TC 65 978 17 167
1961333S11157 1962 122 SP MM NOT_NAMED 1961-12-02 12:00:00 TS -20.3381 162.533 978 bom main 156 146 O_____O__OO_O_ jtwc_sh SH011962 -21.0000 162.000 -1 -19.5000 163.200 978 -19.5000 163.200 TC 60 978 -21.0000 162.000 4 -19.4000 163.300 TC 65 978 18 166
1961333S11157 1962 122 SP MM NOT_NAMED 1961-12-02 15:00:00 TS -21.2062 162.780 main 160 160 P_____P___P_P_ SH011962 -21.9098 162.120 -1 -20.2051 163.705 979 TC -21.9086 162.133 4 -20.0976 163.820 TC 62 979 18 164
1961333S11157 1962 122 SP MM NOT_NAMED 1961-12-02 18:00:00 TS -22.0662 163.055 main 198 198 O_____P___P_O_ jtwc_sh SH011962 -22.7000 162.300 -1 -21.0182 164.271 981 TC -22.7507 162.308 4 -20.9000 164.400 TC 60 980 18 163
1961333S11157 1962 122 SP MM NOT_NAMED 1961-12-02 21:00:00 TS -22.9174 163.349 main 235 235 P_____P___P_P_ SH011962 -23.4747 162.540 -1 -21.8976 164.880 982 TC -23.4926 162.555 4 -21.7377 164.994 TC 57 982 17 163
1961333S11157 1962 122 SP MM NOT_NAMED 1961-12-02 23:00:00 TS -23.4431 163.524 984 bom main 265 265 P_____O___P_P_ SH011962 -23.9143 162.764 -1 -22.5000 165.300 984 TC -23.9146 162.772 4 -22.2651 165.351 TC 55 983 16 167
1961333S11157 1962 122 SP MM NOT_NAMED 1961-12-03 00:00:00 TS -23.7000 163.550 main 289 289 O_________O_O_ jtwc_sh SH011962 -24.1000 162.900 -1 -24.1000 162.900 4 -22.5000 165.500 TC 55 984 13 148
1961333S11157 1962 122 SP MM NOT_NAMED 1961-12-03 03:00:00 TS -24.1576 164.010 main 316 307 P_________P_P_ SH011962 -24.5175 163.405 -1 -24.5580 163.395 4 -23.0372 165.833 TC 55 984 12 133
1961333S11157 1962 122 SP MM NOT_NAMED 1961-12-03 06:00:00 TS -24.4954 164.496 main 313 310 O_________P_O_ jtwc_sh SH011962 -24.8000 164.000 -1 -24.8816 163.983 4 -23.5000 166.000 TC 55 984 11 128
1961333S11157 1962 122 SP MM NOT_NAMED 1961-12-03 09:00:00 TS -24.8386 164.968 main 313 313 P_________P_P_ SH011962 -25.0801 164.615 -1 -25.1142 164.604 4 -24.0799 166.038 TC 55 984 10 128
1961333S11157 1962 122 SP MM NOT_NAMED 1961-12-03 12:00:00 TS -25.1250 165.400 main 329 329 O_________O_O_ jtwc_sh SH011962 -25.3000 165.200 -1 -25.3000 165.200 4 -24.6000 166.000 TC 55 984 9 125
1961333S11157 1962 122 SP MM NOT_NAMED 1961-12-03 15:00:00 TS -25.3360 165.757 main 336 336 P_________P_P_ SH011962 -25.4571 165.673 -1 -25.4772 165.680 4 -24.9525 166.000 TC 55 984 7 122
1961333S11157 1962 122 SP MM NOT_NAMED 1961-12-03 18:00:00 TS -25.5065 166.081 main 351 350 O_________P_O_ jtwc_sh SH011962 -25.6000 166.100 -1 -25.6259 166.126 4 -25.2000 166.000 TC 55 984 7 120
1961333S11157 1962 122 SP MM NOT_NAMED 1961-12-03 21:00:00 TS -25.6816 166.411 main 370 369 P_________P_P_ SH011962 -25.7623 166.543 -1 -25.7867 166.558 4 -25.4150 166.000 TC 55 984 7 123
1961333S11157 1962 122 SP MM NOT_NAMED 1961-12-04 00:00:00 TS -25.9000 166.750 main 391 391 O_________O_O_ jtwc_sh SH011962 -26.0000 167.000 -1 -26.0000 167.000 4 -25.6000 166.000 TC 55 984 9 129
1961333S11157 1962 122 SP MM NOT_NAMED 1961-12-04 03:00:00 TS -26.2267 167.154 main 425 425 P_________P_P_ SH011962 -26.3774 167.492 -1 -26.3595 167.632 4 -25.7925 166.000 TC 55 984 10 133
1961333S11157 1962 122 SP MM NOT_NAMED 1961-12-04 06:00:00 TS -26.5917 167.564 main 474 474 O_________P_O_ jtwc_sh SH011962 -26.8000 168.000 -1 -26.7666 168.257 4 -26.0000 166.000 TC 55 984 10 133
1961333S11157 1962 122 SP MM NOT_NAMED 1961-12-04 09:00:00 TS -26.9458 168.006 main 514 514 P_________P_P_ SH011962 -27.1878 168.634 -1 -27.1651 168.754 4 -26.2425 166.000 TC 55 985 9 137
1961333S11157 1962 122 SP MM NOT_NAMED 1961-12-04 12:00:00 TS -27.2500 168.250 main 554 554 O_________O_O_ jtwc_sh SH011962 -27.5000 169.000 -1 -27.5000 169.000 4 -26.5000 166.000 TC 55 986 5 177
1961333S11157 1962 122 SP MM NOT_NAMED 1961-12-04 15:00:00 TS -27.4609 168.044 main 580 578 P_________P_P_ SH011962 -27.6875 168.743 -1 -27.7185 168.706 4 -26.7500 165.985 TC 55 986 7 236
1961333S11157 1962 122 SP MM NOT_NAMED 1961-12-04 18:00:00 TS -27.6162 167.644 main 585 585 O_________P_O_ jtwc_sh SH011962 -27.8000 168.200 -1 -27.8649 168.176 4 -27.0000 166.000 TC 55 986 8 247
1961333S11157 1962 122 SP MM NOT_NAMED 1961-12-04 21:00:00 TS -27.7640 167.228 main 604 603 P_________P_P_ SH011962 -27.9228 167.623 -1 -27.9531 167.633 4 -27.2573 166.033 TC 52 987 6 245
1961333S11157 1962 122 SP MM NOT_NAMED 1961-12-05 00:00:00 TS -27.8750 167.025 main 614 614 O_________O_O_ jtwc_sh SH011962 -28.0000 167.300 -1 -28.0000 167.300 4 -27.5000 166.200 TC 50 989 2 152
1961333S11157 1962 122 SP MM NOT_NAMED 1961-12-05 03:00:00 TS -27.9422 167.334 main 615 615 P_________P_P_ SH011962 -28.0153 167.622 -1 -28.0081 167.501 4 -27.7301 166.590 TC 47 989 7 97
1961333S11157 1962 122 SP MM NOT_NAMED 1961-12-05 06:00:00 TS -27.9716 167.858 main 633 633 O_________P_O_ jtwc_sh SH011962 -28.0000 168.200 -1 -27.9865 167.933 4 -27.9000 167.100 TC 45 990 9 92
1961333S11157 1962 122 SP MM NOT_NAMED 1961-12-05 09:00:00 TS -27.9765 168.330 main 641 641 P_________P_P_ SH011962 -27.9774 168.623 -1 -27.9713 168.474 4 -27.9800 167.600 TC 42 991 8 92
1961333S11157 1962 122 SP MM NOT_NAMED 1961-12-05 12:00:00 TS -28.0000 168.775 main 654 654 O_________O_O_ jtwc_sh SH011962 -28.0000 169.000 -1 -28.0000 169.000 4 -28.0000 168.100 TC 40 993 7 99
1961333S11157 1962 122 SP MM NOT_NAMED 1961-12-05 15:00:00 TS -28.0892 169.134 main 674 674 P_________P_P_ SH011962 -28.1198 169.315 -1 -28.1323 169.347 4 -27.9848 168.558 TC 47 988 6 111
1961333S11157 1962 122 SP MM NOT_NAMED 1961-12-05 18:00:00 TS -28.2280 169.465 main 698 698 O_________P_O_ jtwc_sh SH011962 -28.3000 169.600 -1 -28.3119 169.659 4 -28.0000 169.000 TC 55 984 7 119
1961333S11157 1962 122 SP MM NOT_NAMED 1961-12-05 21:00:00 TS -28.4151 169.803 main 730 699 P_________P_P_ SH011962 -28.5075 169.915 -1 -28.5106 169.941 4 -28.1348 169.442 TC 47 989 7 123
1961333S11157 1962 122 SP MM NOT_NAMED 1961-12-06 00:00:00 TS -28.6000 170.125 main 699 679 O_________O_O_ jtwc_sh SH011962 -28.7000 170.200 -1 -28.7000 170.200 4 -28.3000 169.900 TC 40 995 6 119
1961333S11157 1962 122 SP MM NOT_NAMED 1961-12-06 03:00:00 TS -28.7105 170.414 main 679 660 P_________P_P_ SH011962 -28.8074 170.408 -1 -28.8350 170.447 4 -28.3924 170.393 TC 37 995 5 113
1961333S11157 1962 122 SP MM NOT_NAMED 1961-12-06 06:00:00 TS -28.8143 170.693 main 660 642 O_________P_O_ jtwc_sh SH011962 -28.9000 170.600 -1 -28.9571 170.673 4 -28.5000 170.900 TC 35 996 6 115
1961333S11157 1962 122 SP MM NOT_NAMED 1961-12-06 09:00:00 TS -28.9578 171.021 main 631 614 P_________P_P_ SH011962 -29.0425 170.850 -1 -29.0757 170.888 4 -28.6704 171.497 TC 37 6 120
1961333S11157 1962 122 SP MM NOT_NAMED 1961-12-06 12:00:00 TS -29.1250 171.300 main 614 590 O_________O_O_ jtwc_sh SH011962 -29.2000 171.100 -1 -29.2000 171.100 4 -28.9000 171.900 TC 40 5 135
1961333S11157 1962 122 SP MM NOT_NAMED 1961-12-06 15:00:00 TS -29.3114 171.424 main 590 567 P_________P_P_ SH011962 -29.3499 171.300 -1 -29.3383 171.301 4 -29.2074 171.796 TC 37 4 152
1961333S11157 1962 122 SP MM NOT_NAMED 1961-12-06 18:00:00 TS -29.4961 171.526 main 567 553 O_________P_O_ jtwc_sh SH011962 -29.5000 171.500 -1 -29.4843 171.506 4 -29.5000 171.600 TC 35 4 142
1961333S11157 1962 122 SP MM NOT_NAMED 1961-12-06 21:00:00 TS -29.6507 171.728 main 542 527 P_________P_P_ SH011962 -29.6499 171.728 -1 -29.6382 171.732 4 -29.6649 171.725 TC 32 5 126
1961333S11157 1962 122 SP MM NOT_NAMED 1961-12-07 00:00:00 TS -29.8000 172.000 main 527 502 O_________O_O_ jtwc_sh SH011962 -29.8000 172.000 -1 -29.8000 172.000 4 -29.8000 172.000 TC 30 6 121
1961333S11157 1962 122 SP MM NOT_NAMED 1961-12-07 03:00:00 TS -29.9653 172.329 main 502 490 P_________P_P_ SH011962 -29.9424 172.328 -1 -29.9763 172.340 4 -30.0000 172.320 TC 30 7 119
1961333S11157 1962 122 SP MM NOT_NAMED 1961-12-07 06:00:00 TS -30.1395 172.705 main 490 468 O_________P_O_ jtwc_sh SH011962 -30.1000 172.700 -1 -30.1580 172.719 4 -30.2000 172.700 TC 30 8 118
1961333S11157 1962 122 SP MM NOT_NAMED 1961-12-07 09:00:00 TS -30.3252 173.104 main 468 447 P_________P_P_ SH011962 -30.3000 173.100 -1 -30.3356 173.115 4 -30.3650 173.100 TC 30 8 118
1961333S11157 1962 122 SP MM NOT_NAMED 1961-12-07 12:00:00 TS -30.5000 173.500 main 448 438 O_________O_O_ jtwc_sh SH011962 -30.5000 173.500 -1 -30.5000 173.500 4 -30.5000 173.500 TC 30 7 116
1961333S11157 1962 122 SP MM NOT_NAMED 1961-12-07 15:00:00 TS -30.6371 173.860 main 443 427 P_________P_P_ SH011962 -30.6649 173.865 -1 -30.6187 173.844 4 -30.5999 173.865 TC 30 6 113
1961333S11157 1962 122 SP MM NOT_NAMED 1961-12-07 18:00:00 TS -30.7568 174.193 main 427 425 O_________P_O_ jtwc_sh SH011962 -30.8000 174.200 -1 -30.7270 174.174 4 -30.7000 174.200 TC 30 6 112
1961333S11157 1962 122 SP MM NOT_NAMED 1961-12-07 21:00:00 TS -30.8610 174.504 main 425 421 P_________P_P_ SH011962 -30.8849 174.508 -1 -30.8469 174.491 4 -30.8274 174.508 TC 30 6 115
1961333S11157 1962 122 SP MM NOT_NAMED 1961-12-08 00:00:00 TS -31.0000 174.800 main 424 412 O_________O_O_ jtwc_sh SH011962 -31.0000 174.800 -1 -31.0000 174.800 4 -31.0000 174.800 TC 30 6 126
1961333S11157 1962 122 SP MM NOT_NAMED 1961-12-08 03:00:00 TS -31.2330 175.105 main 416 402 P_________P_P_ SH011962 -31.2274 175.100 -1 -31.2424 175.119 4 -31.2349 175.100 TC 30 7 134
1961333S11157 1962 122 SP MM NOT_NAMED 1961-12-08 06:00:00 TS -31.5037 175.407 main 402 391 O_________P_O_ jtwc_sh SH011962 -31.5000 175.400 -1 -31.5149 175.429 4 -31.5000 175.400 TC 30 8 136
1961333S11157 1962 122 SP MM NOT_NAMED 1961-12-08 09:00:00 TS -31.7800 175.715 main 391 386 P_________P_P_ SH011962 -31.7800 175.715 -1 -31.7800 175.725 4 -31.7800 175.707 TC 30 7 135
1961333S11157 1962 122 SP MM NOT_NAMED 1961-12-08 12:00:00 TS -32.0000 176.000 main 391 386 O_________O_O_ jtwc_sh SH011962 -32.0000 176.000 -1 -32.0000 176.000 4 -32.0000 176.000 TC 30 5 125
1961333S11157 1962 122 SP MM NOT_NAMED 1961-12-08 15:00:00 TS -32.0793 176.226 main 391 391 P_________P_P_ SH011962 -32.0723 176.208 -1 -32.1002 176.224 4 -32.0724 176.265 TC 30 4 107
1961333S11157 1962 122 SP MM NOT_NAMED 1961-12-08 18:00:00 TS -32.1141 176.432 main 401 401 O_________P_O_ jtwc_sh SH011962 -32.1000 176.400 -1 -32.1565 176.430 4 -32.1000 176.500 TC 30 4 106
1961333S11157 1962 122 SP MM NOT_NAMED 1961-12-08 21:00:00 TS -32.1798 176.647 main 402 402 P_________P_P_ SH011962 -32.1699 176.628 -1 -32.2095 176.646 4 -32.1698 176.685 TC 30 4 115
1961333S11157 1962 122 SP MM NOT_NAMED 1961-12-09 00:00:00 TS -32.3000 176.900 main 411 404 O_________O_O_ jtwc_sh SH011962 -32.3000 176.900 -1 -32.3000 176.900 4 -32.3000 176.900 TC 30 6 125
1961333S11157 1962 122 SP MM NOT_NAMED 1961-12-09 03:00:00 TS -32.5228 177.227 main 410 406 P_________P_P_ SH011962 -32.5350 177.227 -1 -32.4862 177.235 4 -32.5350 177.220 TC 30 8 129
1961333S11157 1962 122 SP MM NOT_NAMED 1961-12-09 06:00:00 TS -32.7782 177.603 main 411 411 O_________P_O_ jtwc_sh SH011962 -32.8000 177.600 -1 -32.7129 177.612 4 -32.8000 177.600 TC 30 8 126
1961333S11157 1962 122 SP MM NOT_NAMED 1961-12-09 09:00:00 TS -32.9951 178.002 main 425 425 P_________P_P_ SH011962 -33.0075 178.000 -1 -32.9581 178.007 4 -33.0075 178.000 TC 27 8 122
1961333S11157 1962 122 SP MM NOT_NAMED 1961-12-09 12:00:00 TS -33.2000 178.400 main 441 441 O_________O_O_ jtwc_sh SH011962 -33.2000 178.400 -1 -33.2000 178.400 4 -33.2000 178.400 TC 25 8 123
1961333S11157 1962 122 SP MM NOT_NAMED 1961-12-09 15:00:00 TS -33.4053 178.761 main 460 450 P_________P_P_ SH011962 -33.3998 178.758 -1 -33.4219 178.772 4 -33.3998 178.758 TC 25 7 125
1961333S11157 1962 122 SP MM NOT_NAMED 1961-12-09 18:00:00 TS -33.6063 179.106 main 451 434 O_________P_O_ jtwc_sh SH011962 -33.6000 179.100 -1 -33.6252 179.125 4 -33.6000 179.100 TC 25 7 125
1961333S11157 1962 122 SP MM NOT_NAMED 1961-12-09 21:00:00 TS -33.8042 179.452 main 436 420 P_________P_P_ SH011962 -33.8002 179.447 -1 -33.8160 179.465 4 -33.8002 179.447 TC 22 7 124
1961333S11157 1962 122 SP MM NOT_NAMED 1961-12-10 00:00:00 TS -34.0000 179.800 main 423 O_________O_O_ jtwc_sh SH011962 -34.0000 179.800 -1 -34.0000 179.800 4 -34.0000 179.800 TC 20 7 124

デジタル台風データ・検索

IBTrACS Databaseについて

本データベースは、米国NOAAが公開する1842年以降の世界の熱帯低気圧のベストトラックデータアーカイブInternational Best Track Archive for Climate Stewardship (IBTrACS)を、ウェブで閲覧しやすい形式に変換したものです。

最終更新日:2021-11-26